Charles Town, WV (25414)

1:09 PM EDT on October 31, 2014 (GMT -0400)
Ranson, West Virginia | Change Station
CLOSE
Current Station
Personal Weather Station
Location: Ranson, WV
Elevation: 531 ft
Nearby Weather Stations

Elev 531 ft 39.30 °N, 77.87 °W | Updated 52 seconds ago

Overcast
Overcast
53.9 °F
Feels Like 53.9 °F
N
0.0
Wind Variable Wind from WNW
Gusts 0.0 mph

Today
High -- | Low -- °F
--% Chance of Precip.
Yesterday
High -- | Low -- °F
Precip. -- in
7:38 AM 6:11 PM
First Quarter, 57% visible
Pressure 29.94 in
Visibility 10.0 miles
Clouds Few 2900 ft
Overcast 6000 ft
Dew Point 38 °F
Humidity 55%
Rainfall 0.00 in
Snow Depth Not available.
UV 1 out of 12
Pollen .10 out of 12
Air Quality Not available.
Flu Activity Not available.
METAR KMRB 311653Z 00000KT 10SM FEW029 OVC060 11/03 A2993 RMK AO2 SLP136 T01110028

More Conditions Fewer Conditions

Pressure 29.94 in
Visibility 10.0 miles
Clouds Few 2900 ft
Overcast 6000 ft
Dew Point 38 °F
Humidity 55%
Rainfall 0.00 in
Snow Depth Not available.
UV 1 out of 12
Pollen .10 out of 12
Air Quality Not available.
Flu Activity Not available.
METAR KMRB 311653Z 00000KT 10SM FEW029 OVC060 11/03 A2993 RMK AO2 SLP136 T01110028

More Conditions Fewer Conditions

10-Day Weather Forecast

Almanac

Astronomy

Oct. 31, 2014 Rise Set
Actual Time
Civil Twilight
Nautical Twilight
Astronomical Twilight
Moon
Length of Visible Light
Length of Day
Tomorrow will be .
, % of the Moon is Illuminated

Today's Extremes

State Highs State Lows

Community

WunderPhotos

Upload Photos

1,766,660 photos uploaded!

WunderBlogs® & News

Nearby

Air Quality

  Air Quality AQ Index Pollutant
Not available.

Snow Depth

Station Depth Elevation

Earthquake Activity

City Distance Mag. Time & Date
Minimum magnitude displayed is 2.5.

Coastal Water Temperatures

Place Temperature

Nearby Weather Stations